Time;durP1;ratioP1;P1;durP2;ratioP2;P2;SDS_P1;SDS_P2;PMS_P1;PMS_P2;Temp;Humidity;BMP_temperature;BMP_pressure;BME280_temperature;BME280_humidity;BME280_pressure;Samples;Min_cycle;Max_cycle;Signal;HPM_P1;HPM_P2
2023/08/31 00:01:20;;;;;;;1.05;0.60;;;22.10;63.90;;;;;;6196347;28;20022;-70
2023/08/31 00:04:21;;;;;;;0.68;0.57;;;22.10;63.90;;;;;;6196520;28;20553;-70
2023/08/31 00:07:21;;;;;;;1.02;0.70;;;22.10;64.00;;;;;;6196092;28;20039;-70
2023/08/31 00:10:23;;;;;;;0.95;0.63;;;22.10;63.90;;;;;;6196235;28;20054;-69
2023/08/31 00:13:24;;;;;;;0.88;0.57;;;22.10;63.90;;;;;;6196042;28;20030;-70
2023/08/31 00:16:26;;;;;;;0.93;0.68;;;22.10;64.00;;;;;;6195607;28;20027;-70
2023/08/31 00:19:26;;;;;;;0.93;0.70;;;22.10;64.00;;;;;;6197173;28;20035;-70
2023/08/31 00:22:28;;;;;;;0.60;0.50;;;22.10;64.00;;;;;;6196046;28;20543;-70
2023/08/31 00:25:29;;;;;;;3.10;0.60;;;22.10;64.00;;;;;;6196199;28;20034;-70
2023/08/31 00:28:29;;;;;;;2.83;0.68;;;22.10;64.00;;;;;;6195313;28;20030;-70
2023/08/31 00:31:30;;;;;;;0.70;0.57;;;22.10;64.00;;;;;;6196297;28;20125;-70
2023/08/31 00:34:32;;;;;;;0.50;0.50;;;22.10;64.00;;;;;;6195270;28;20030;-70
2023/08/31 00:37:34;;;;;;;0.80;0.63;;;22.10;64.10;;;;;;6195445;28;20031;-70
2023/08/31 00:40:40;;;;;;;0.85;0.60;;;22.10;64.10;;;;;;6195654;28;20041;-70
2023/08/31 00:43:41;;;;;;;0.52;0.47;;;22.10;64.10;;;;;;6194832;28;20022;-70
2023/08/31 00:46:42;;;;;;;0.95;0.70;;;22.10;64.00;;;;;;6195845;28;20022;-70
2023/08/31 00:49:44;;;;;;;0.52;0.52;;;22.10;64.10;;;;;;6195365;28;20034;-69
2023/08/31 00:52:44;;;;;;;0.50;0.50;;;22.10;64.10;;;;;;6195690;28;20496;-70
2023/08/31 00:55:45;;;;;;;0.50;0.50;;;22.10;64.10;;;;;;6195744;28;20029;-70
2023/08/31 00:58:46;;;;;;;0.93;0.60;;;22.10;64.10;;;;;;6194714;28;20022;-70
2023/08/31 01:02:13;;;;;;;0.80;0.60;;;22.10;64.10;;;;;;6194763;28;20074;-70
2023/08/31 01:05:26;;;;;;;0.90;0.60;;;22.10;64.10;;;;;;6194938;28;20032;-70
2023/08/31 01:08:38;;;;;;;1.08;0.60;;;22.10;64.10;;;;;;6195192;28;20039;-70
2023/08/31 01:11:54;;;;;;;1.10;0.60;;;22.10;64.10;;;;;;6194834;28;20050;-69
2023/08/31 01:14:59;;;;;;;0.60;0.50;;;22.10;64.10;;;;;;6194420;28;20409;-70
2023/08/31 01:18:01;;;;;;;0.85;0.60;;;22.10;64.10;;;;;;6194416;28;20034;-70
2023/08/31 01:21:11;;;;;;;0.43;0.43;;;22.10;64.10;;;;;;6194040;28;20110;-70
2023/08/31 01:24:12;;;;;;;0.98;0.60;;;22.10;64.10;;;;;;6194222;28;20019;-70
2023/08/31 01:27:14;;;;;;;0.75;0.55;;;22.10;64.10;;;;;;6193911;28;20023;-70
2023/08/31 01:30:15;;;;;;;0.85;0.50;;;22.10;64.10;;;;;;6193974;28;20501;-70
2023/08/31 01:33:15;;;;;;;0.50;0.40;;;22.10;64.10;;;;;;6194662;28;20023;-70
2023/08/31 01:36:28;;;;;;;0.85;0.50;;;22.10;64.10;;;;;;6194102;28;20022;-69
2023/08/31 01:39:41;;;;;;;0.40;0.40;;;22.10;64.10;;;;;;6193868;28;20058;-70
2023/08/31 01:42:43;;;;;;;0.60;0.50;;;22.10;64.10;;;;;;6194438;28;20034;-69
2023/08/31 01:45:46;;;;;;;0.47;0.47;;;22.10;64.20;;;;;;6193529;28;20438;-70
2023/08/31 01:48:47;;;;;;;0.88;0.57;;;22.10;64.20;;;;;;6193551;28;20046;-70
2023/08/31 01:51:48;;;;;;;0.98;0.70;;;22.10;64.20;;;;;;6193329;28;20371;-70
2023/08/31 01:54:48;;;;;;;0.65;0.60;;;22.10;64.10;;;;;;6194080;28;20037;-69
2023/08/31 01:57:49;;;;;;;2.42;0.60;;;22.10;64.20;;;;;;6193845;28;20022;-70
2023/08/31 02:00:49;;;;;;;0.60;0.43;;;22.10;64.20;;;;;;6193422;28;20030;-70
2023/08/31 02:03:50;;;;;;;0.50;0.50;;;22.10;64.20;;;;;;6194104;28;20374;-70
2023/08/31 02:06:50;;;;;;;0.40;0.40;;;22.10;64.20;;;;;;6193027;28;20023;-69
2023/08/31 02:09:51;;;;;;;0.75;0.50;;;22.10;64.20;;;;;;6193379;28;20054;-70
2023/08/31 02:12:52;;;;;;;0.65;0.60;;;22.10;64.20;;;;;;6194422;28;20470;-70
2023/08/31 02:15:53;;;;;;;0.32;0.32;;;22.10;64.20;;;;;;6193272;28;20092;-69
2023/08/31 02:18:54;;;;;;;0.73;0.47;;;22.10;64.20;;;;;;6193105;28;20019;-70
2023/08/31 02:21:54;;;;;;;0.40;0.40;;;22.10;64.20;;;;;;6195148;28;20026;-70
2023/08/31 02:24:55;;;;;;;0.93;0.60;;;22.10;64.20;;;;;;6198748;28;20525;-70
2023/08/31 02:27:55;;;;;;;0.65;0.50;;;22.10;65.10;;;;;;6198926;28;20031;-70
2023/08/31 02:31:02;;;;;;;0.73;0.63;;;22.10;64.20;;;;;;6198877;28;20044;-70
2023/08/31 02:34:03;;;;;;;0.68;0.47;;;22.10;64.30;;;;;;6198481;28;20374;-70
2023/08/31 02:37:03;;;;;;;0.45;0.40;;;22.10;64.20;;;;;;6198747;28;20112;-70
2023/08/31 02:40:06;;;;;;;0.70;0.60;;;22.10;64.20;;;;;;6198559;28;20053;-70
2023/08/31 02:43:06;;;;;;;0.85;0.60;;;22.10;64.20;;;;;;6197854;28;20109;-70
2023/08/31 02:46:07;;;;;;;0.68;0.50;;;22.10;64.20;;;;;;6197812;28;20037;-70
2023/08/31 02:49:08;;;;;;;1.00;0.68;;;22.10;64.20;;;;;;6198086;28;20026;-70
2023/08/31 02:52:08;;;;;;;0.80;0.60;;;22.10;64.20;;;;;;6197498;28;20046;-70
2023/08/31 02:55:10;;;;;;;0.60;0.40;;;22.10;64.20;;;;;;6197849;28;20174;-70
2023/08/31 02:58:10;;;;;;;0.40;0.40;;;22.10;64.20;;;;;;6197097;28;20040;-70
2023/08/31 03:01:12;;;;;;;0.68;0.68;;;22.10;64.20;;;;;;6197821;28;20018;-70
2023/08/31 03:04:12;;;;;;;0.88;0.60;;;22.10;64.30;;;;;;6196987;28;20026;-70
2023/08/31 03:07:15;;;;;;;0.50;0.40;;;22.10;64.30;;;;;;6197225;28;20031;-70
2023/08/31 03:10:15;;;;;;;0.40;0.40;;;22.10;64.20;;;;;;6197381;28;20058;-70
2023/08/31 03:13:16;;;;;;;0.52;0.50;;;22.10;64.30;;;;;;6196931;28;20029;-70
2023/08/31 03:16:18;;;;;;;0.60;0.60;;;22.10;64.20;;;;;;6197436;28;20061;-70
2023/08/31 03:19:18;;;;;;;0.50;0.50;;;22.10;64.30;;;;;;6197329;28;20422;-69
2023/08/31 03:22:19;;;;;;;0.50;0.40;;;22.10;64.30;;;;;;6197565;28;20054;-70
2023/08/31 03:25:19;;;;;;;0.75;0.50;;;22.10;64.30;;;;;;6197453;28;20037;-70
2023/08/31 03:28:20;;;;;;;0.75;0.52;;;22.10;64.30;;;;;;6197113;28;20093;-70
2023/08/31 03:31:21;;;;;;;0.38;0.38;;;22.10;64.30;;;;;;6197385;28;20062;-70
2023/08/31 03:34:22;;;;;;;0.60;0.60;;;22.10;64.30;;;;;;6197240;28;20034;-70
2023/08/31 03:37:22;;;;;;;0.52;0.50;;;22.10;64.30;;;;;;6197259;28;20026;-70
2023/08/31 03:40:23;;;;;;;0.65;0.45;;;22.10;64.30;;;;;;6180789;28;20469;-70
2023/08/31 03:43:24;;;;;;;0.40;0.40;;;22.10;64.30;;;;;;6197262;28;20022;-70
2023/08/31 03:46:26;;;;;;;0.57;0.43;;;22.10;64.30;;;;;;6196456;28;20381;-70
2023/08/31 03:49:27;;;;;;;0.43;0.40;;;22.10;64.30;;;;;;6196797;28;20461;-69
2023/08/31 03:52:28;;;;;;;0.47;0.47;;;22.10;64.30;;;;;;6196991;28;20061;-70
2023/08/31 03:55:28;;;;;;;0.30;0.30;;;22.10;65.20;;;;;;6196716;28;20053;-70
2023/08/31 03:58:29;;;;;;;0.50;0.47;;;22.10;64.30;;;;;;6196827;28;20478;-70
2023/08/31 04:01:30;;;;;;;0.40;0.40;;;22.10;64.30;;;;;;6211553;28;20023;-70
2023/08/31 04:04:30;;;;;;;0.70;0.50;;;22.10;64.30;;;;;;6196899;28;20022;-70
2023/08/31 04:07:32;;;;;;;0.57;0.50;;;22.10;64.30;;;;;;6196637;28;20028;-70
2023/08/31 04:10:33;;;;;;;0.85;0.60;;;22.10;64.30;;;;;;6196414;28;20483;-70
2023/08/31 04:13:34;;;;;;;0.82;0.30;;;22.10;64.30;;;;;;6197216;28;20092;-70
2023/08/31 04:16:34;;;;;;;0.50;0.50;;;22.10;64.30;;;;;;6195900;28;20101;-71
2023/08/31 04:19:36;;;;;;;0.43;0.43;;;22.10;64.30;;;;;;6196355;28;20540;-70
2023/08/31 04:22:36;;;;;;;1.02;0.50;;;22.10;64.30;;;;;;6196102;28;20048;-70
2023/08/31 04:25:38;;;;;;;0.50;0.43;;;22.10;64.30;;;;;;6196296;28;20034;-70
2023/08/31 04:28:40;;;;;;;0.57;0.50;;;22.10;64.30;;;;;;6195788;28;20384;-70
2023/08/31 04:31:40;;;;;;;0.60;0.50;;;22.10;64.30;;;;;;6195993;28;20038;-70
2023/08/31 04:34:41;;;;;;;0.60;0.50;;;22.10;64.40;;;;;;6196024;28;20037;-70
2023/08/31 04:37:41;;;;;;;0.52;0.45;;;22.10;64.30;;;;;;6195830;28;20019;-70
2023/08/31 04:40:43;;;;;;;1.00;0.43;;;22.00;64.20;;;;;;6195864;28;20517;-70
2023/08/31 04:43:44;;;;;;;0.50;0.50;;;22.10;64.30;;;;;;6195179;28;20030;-70
2023/08/31 04:46:44;;;;;;;0.30;0.22;;;22.10;64.30;;;;;;6195227;28;20073;-71
2023/08/31 04:49:45;;;;;;;0.73;0.50;;;22.10;64.30;;;;;;6195776;28;20033;-70
2023/08/31 04:52:46;;;;;;;0.43;0.40;;;22.10;64.30;;;;;;6195490;28;20466;-70
2023/08/31 04:55:46;;;;;;;0.30;0.30;;;22.10;64.30;;;;;;6194922;28;20034;-70
2023/08/31 04:58:47;;;;;;;0.63;0.40;;;22.10;64.30;;;;;;6194775;28;20354;-71
2023/08/31 05:01:47;;;;;;;0.70;0.70;;;22.10;64.30;;;;;;6181576;28;20023;-70
2023/08/31 05:04:48;;;;;;;0.40;0.40;;;22.10;64.30;;;;;;6186285;28;20129;-70
2023/08/31 05:07:49;;;;;;;0.40;0.40;;;22.00;64.30;;;;;;6193050;28;20062;-71
2023/08/31 05:10:49;;;;;;;0.77;0.50;;;22.00;64.30;;;;;;6204703;28;20066;-70
2023/08/31 05:13:50;;;;;;;0.50;0.40;;;22.00;64.30;;;;;;6196640;28;20502;-70
2023/08/31 05:16:51;;;;;;;0.38;0.38;;;22.00;64.30;;;;;;6201589;28;20049;-70
2023/08/31 05:19:51;;;;;;;0.63;0.60;;;22.00;64.30;;;;;;6192645;28;20101;-70
2023/08/31 05:22:52;;;;;;;0.73;0.70;;;22.00;64.30;;;;;;6196646;28;20032;-70
2023/08/31 05:25:53;;;;;;;1.73;0.65;;;22.00;64.20;;;;;;6197235;28;20033;-69
2023/08/31 05:28:53;;;;;;;1.17;0.65;;;22.00;64.20;;;;;;6192823;28;20591;-70
2023/08/31 05:31:54;;;;;;;4.07;0.90;;;22.00;64.10;;;;;;6192736;28;20053;-70
2023/08/31 05:34:54;;;;;;;3.63;1.17;;;22.00;64.10;;;;;;6183843;28;20347;-70
2023/08/31 05:37:55;;;;;;;1.63;1.00;;;22.00;64.10;;;;;;6192578;28;20023;-70
2023/08/31 05:41:09;;;;;;;2.08;1.42;;;21.90;63.90;;;;;;6195334;28;20069;-70
2023/08/31 05:44:10;;;;;;;1.95;1.15;;;21.90;63.90;;;;;;6179648;28;20046;-70
2023/08/31 05:47:10;;;;;;;1.52;1.23;;;21.90;63.80;;;;;;6192513;28;20055;-70
2023/08/31 05:50:11;;;;;;;1.77;1.23;;;21.90;63.70;;;;;;6192290;28;20022;-71
2023/08/31 05:53:12;;;;;;;3.13;1.63;;;21.90;63.60;;;;;;6192462;28;20313;-70
2023/08/31 05:56:12;;;;;;;2.17;1.33;;;21.90;63.70;;;;;;6191359;28;20033;-70
2023/08/31 05:59:13;;;;;;;2.05;1.23;;;21.90;63.50;;;;;;6198107;28;20035;-70
2023/08/31 06:02:14;;;;;;;2.33;1.30;;;21.90;63.40;;;;;;6194383;28;20032;-70
2023/08/31 06:05:17;;;;;;;4.93;1.60;;;21.90;63.40;;;;;;6196012;28;20492;-70
2023/08/31 06:08:18;;;;;;;3.65;1.92;;;21.90;63.30;;;;;;6196001;28;20390;-70
2023/08/31 06:11:18;;;;;;;4.68;1.50;;;21.90;63.20;;;;;;6195414;28;20089;-70
2023/08/31 06:14:19;;;;;;;1.98;1.17;;;22.00;63.30;;;;;;6196289;28;20509;-70
2023/08/31 06:17:20;;;;;;;2.30;1.52;;;22.00;63.20;;;;;;6195494;28;20034;-70
2023/08/31 06:20:20;;;;;;;3.17;1.55;;;22.00;62.50;;;;;;6195945;28;20384;-70
2023/08/31 06:23:21;;;;;;;2.97;1.80;;;22.00;62.20;;;;;;6195649;28;20029;-70
2023/08/31 06:26:21;;;;;;;2.47;1.40;;;22.00;61.90;;;;;;6196216;28;20486;-70
2023/08/31 06:29:22;;;;;;;3.63;1.60;;;22.00;61.90;;;;;;6196146;28;20034;-70
2023/08/31 06:32:23;;;;;;;4.90;1.95;;;22.00;61.60;;;;;;6195622;28;20497;-70
2023/08/31 06:35:23;;;;;;;2.85;1.50;;;22.00;61.80;;;;;;6195569;28;20099;-70
2023/08/31 06:38:25;;;;;;;3.92;1.80;;;22.00;61.40;;;;;;6195914;28;20118;-70
2023/08/31 06:41:25;;;;;;;6.32;1.58;;;22.00;61.20;;;;;;6195532;28;20018;-70
2023/08/31 06:44:26;;;;;;;2.95;1.63;;;22.00;61.30;;;;;;6195872;28;20073;-70
2023/08/31 06:47:26;;;;;;;4.80;1.60;;;22.00;60.60;;;;;;6210455;28;20543;-70
2023/08/31 06:50:27;;;;;;;3.53;1.60;;;22.00;60.70;;;;;;6195068;28;20093;-70
2023/08/31 06:53:27;;;;;;;2.35;1.45;;;22.00;61.20;;;;;;6195538;28;20489;-70
2023/08/31 06:56:28;;;;;;;2.67;1.33;;;22.00;60.90;;;;;;6195005;28;20082;-70
2023/08/31 06:59:29;;;;;;;3.42;1.70;;;22.00;60.80;;;;;;6195136;28;20037;-70
2023/08/31 07:02:29;;;;;;;2.78;1.70;;;22.00;60.80;;;;;;6194830;28;20022;-70
2023/08/31 07:05:35;;;;;;;3.20;1.30;;;22.00;61.00;;;;;;6195048;28;20026;-70
2023/08/31 07:08:37;;;;;;;1.80;1.25;;;22.00;61.80;;;;;;6197757;28;20022;-70
2023/08/31 07:11:37;;;;;;;2.50;1.33;;;22.00;60.80;;;;;;6198971;28;20351;-70
2023/08/31 07:14:38;;;;;;;5.20;1.60;;;22.00;61.10;;;;;;6199835;28;20080;-70
2023/08/31 07:17:39;;;;;;;3.63;1.58;;;22.00;60.90;;;;;;6199161;28;20098;-70
2023/08/31 07:20:39;;;;;;;3.65;1.63;;;22.00;61.10;;;;;;6199914;28;20117;-69
2023/08/31 07:23:40;;;;;;;2.92;1.50;;;22.00;61.20;;;;;;6199732;28;20030;-70
2023/08/31 07:26:40;;;;;;;2.58;1.33;;;22.00;61.30;;;;;;6199364;28;20493;-70
2023/08/31 07:29:41;;;;;;;2.53;1.45;;;22.00;61.50;;;;;;6199316;28;20061;-70
2023/08/31 07:32:41;;;;;;;1.83;1.33;;;22.00;61.80;;;;;;6198977;28;20572;-70
2023/08/31 07:35:42;;;;;;;2.97;1.15;;;22.00;61.80;;;;;;6199293;28;20096;-70
2023/08/31 07:38:43;;;;;;;4.45;1.30;;;22.00;61.60;;;;;;6198765;28;20113;-70
2023/08/31 07:41:44;;;;;;;2.53;1.38;;;22.00;61.60;;;;;;6199069;28;20390;-70
2023/08/31 07:44:44;;;;;;;2.17;1.40;;;22.00;61.80;;;;;;6198602;28;20030;-70
2023/08/31 07:47:45;;;;;;;2.40;1.40;;;22.00;61.70;;;;;;6198141;28;20065;-70
2023/08/31 07:50:46;;;;;;;3.05;1.33;;;22.00;61.90;;;;;;6198848;28;20461;-70
2023/08/31 07:53:46;;;;;;;1.98;1.48;;;22.00;62.20;;;;;;6198413;28;20018;-70
2023/08/31 07:56:47;;;;;;;4.05;1.17;;;22.00;62.20;;;;;;6198677;28;20045;-70
2023/08/31 07:59:47;;;;;;;1.63;1.08;;;22.00;62.60;;;;;;6198404;28;20025;-70
2023/08/31 08:02:48;;;;;;;1.40;1.08;;;22.00;62.50;;;;;;6198321;28;20022;-70
2023/08/31 08:05:49;;;;;;;2.05;1.10;;;22.00;62.80;;;;;;6198539;28;20065;-70
2023/08/31 08:08:50;;;;;;;1.70;1.20;;;22.00;62.90;;;;;;6198222;28;20088;-70
2023/08/31 08:11:50;;;;;;;1.35;0.95;;;22.00;62.90;;;;;;6198197;28;20053;-70
2023/08/31 08:14:51;;;;;;;3.10;1.10;;;22.00;62.90;;;;;;6198145;28;20068;-70
2023/08/31 08:17:53;;;;;;;1.50;1.08;;;22.00;63.00;;;;;;6198359;28;20027;-70
2023/08/31 08:20:54;;;;;;;2.15;1.00;;;22.00;63.80;;;;;;6197498;28;20058;-70
2023/08/31 08:23:54;;;;;;;1.90;1.00;;;22.00;63.00;;;;;;6197829;28;20018;-70
2023/08/31 08:26:55;;;;;;;4.35;1.38;;;22.00;63.00;;;;;;6198767;28;20381;-70
2023/08/31 08:29:56;;;;;;;1.63;1.13;;;22.00;63.00;;;;;;6197808;28;20073;-70
2023/08/31 08:32:57;;;;;;;1.77;1.05;;;22.00;63.00;;;;;;6198051;28;20034;-70
2023/08/31 08:35:58;;;;;;;1.63;0.93;;;22.00;63.10;;;;;;6197725;28;20474;-70
2023/08/31 08:38:58;;;;;;;2.88;1.15;;;22.00;63.10;;;;;;6197329;28;20034;-70
2023/08/31 08:41:59;;;;;;;1.10;1.00;;;22.00;63.10;;;;;;6197519;28;20030;-70
2023/08/31 08:45:02;;;;;;;1.85;0.90;;;22.00;63.10;;;;;;6196719;28;20042;-70
2023/08/31 08:48:06;;;;;;;2.92;1.00;;;22.00;63.00;;;;;;6197614;28;20026;-70
2023/08/31 08:51:07;;;;;;;1.37;0.87;;;22.00;63.20;;;;;;6196972;28;20482;-70
2023/08/31 08:54:08;;;;;;;1.35;1.10;;;22.00;63.10;;;;;;6197668;28;20683;-70
2023/08/31 08:57:09;;;;;;;1.40;0.90;;;22.00;63.10;;;;;;6197261;28;20062;-70
2023/08/31 09:00:10;;;;;;;1.02;0.90;;;22.00;63.20;;;;;;6196851;28;20141;-70
2023/08/31 09:03:11;;;;;;;1.30;0.75;;;22.00;63.10;;;;;;6197102;28;20034;-70
2023/08/31 09:06:12;;;;;;;1.50;1.08;;;22.00;63.20;;;;;;6197177;28;20486;-70
2023/08/31 09:09:12;;;;;;;1.33;0.95;;;22.00;63.10;;;;;;6196864;28;20031;-70
2023/08/31 09:12:13;;;;;;;1.48;0.80;;;22.00;63.10;;;;;;6196261;28;20069;-70
2023/08/31 09:15:14;;;;;;;1.65;0.90;;;22.00;63.20;;;;;;6196301;28;20026;-70
2023/08/31 09:18:25;;;;;;;1.00;0.80;;;22.00;63.20;;;;;;6196821;28;20033;-70
2023/08/31 09:21:41;;;;;;;1.40;0.90;;;22.00;63.20;;;;;;6196149;28;20048;-70
2023/08/31 09:24:42;;;;;;;1.13;0.93;;;22.00;63.20;;;;;;6196347;28;20026;-70
2023/08/31 09:27:44;;;;;;;1.65;0.80;;;22.00;63.30;;;;;;6196639;28;20022;-70
2023/08/31 09:30:49;;;;;;;1.50;0.80;;;22.00;63.30;;;;;;6195803;28;20039;-70
2023/08/31 09:33:51;;;;;;;;;;;22.00;63.30;;;;;;6197071;28;20022;-70
2023/08/31 09:36:51;;;;;;;1.45;1.00;;;22.00;63.30;;;;;;6196169;28;19906;-70
2023/08/31 09:39:52;;;;;;;1.25;0.98;;;22.00;63.60;;;;;;6196190;28;20045;-70
2023/08/31 09:42:53;;;;;;;1.17;0.88;;;22.00;63.30;;;;;;6196062;28;20026;-71
2023/08/31 09:45:54;;;;;;;1.17;0.85;;;22.00;63.30;;;;;;6195698;28;20092;-70
2023/08/31 09:48:56;;;;;;;0.95;0.75;;;22.00;64.10;;;;;;6195946;28;20026;-70
2023/08/31 09:52:02;;;;;;;0.95;0.70;;;22.00;63.30;;;;;;6195848;28;20039;-70
2023/08/31 09:55:05;;;;;;;1.52;0.77;;;22.00;63.30;;;;;;6183467;28;20107;-70
2023/08/31 09:58:07;;;;;;;0.80;0.70;;;22.00;63.00;;;;;;6199918;28;20431;-70
2023/08/31 10:01:08;;;;;;;1.58;1.00;;;22.00;62.30;;;;;;6201760;28;20034;-70
2023/08/31 10:04:09;;;;;;;1.33;0.80;;;22.00;63.10;;;;;;6197341;28;20022;-70
2023/08/31 10:07:11;;;;;;;2.97;1.10;;;22.00;63.30;;;;;;6202547;28;20026;-70
2023/08/31 10:10:12;;;;;;;1.30;0.70;;;22.00;63.30;;;;;;6193802;28;20448;-70
2023/08/31 10:13:13;;;;;;;0.88;0.65;;;22.00;63.30;;;;;;6193569;28;20022;-70
2023/08/31 10:16:15;;;;;;;0.70;0.70;;;22.00;63.30;;;;;;6194130;28;20436;-70
2023/08/31 10:19:16;;;;;;;0.88;0.80;;;22.00;63.30;;;;;;6194355;28;20034;-70
2023/08/31 10:22:17;;;;;;;1.25;1.00;;;22.00;63.30;;;;;;6194359;28;20019;-70
2023/08/31 10:25:17;;;;;;;1.33;0.70;;;22.00;63.30;;;;;;6201767;28;20501;-70
2023/08/31 10:28:19;;;;;;;1.05;0.77;;;22.00;63.30;;;;;;6193687;28;20030;-70
2023/08/31 10:31:23;;;;;;;0.93;0.73;;;22.00;63.40;;;;;;6202434;28;20043;-70
2023/08/31 10:34:36;;;;;;;1.25;0.80;;;22.00;63.40;;;;;;6194363;28;20026;-70
2023/08/31 10:37:39;;;;;;;0.90;0.70;;;22.00;63.40;;;;;;6194067;28;20150;-70
2023/08/31 10:40:39;;;;;;;1.00;0.70;;;22.00;63.40;;;;;;6194033;28;20042;-70
2023/08/31 10:43:59;;;;;;;1.20;0.90;;;22.00;63.50;;;;;;6198667;28;20034;-70
2023/08/31 10:47:03;;;;;;;1.33;0.68;;;22.00;63.40;;;;;;6206040;28;20061;-70
2023/08/31 10:50:17;;;;;;;1.27;0.80;;;22.00;63.50;;;;;;6198183;28;20109;-70
2023/08/31 10:53:19;;;;;;;0.93;0.75;;;22.00;63.50;;;;;;6198741;28;20029;-70
2023/08/31 10:56:19;;;;;;;1.00;0.65;;;22.00;63.50;;;;;;6198513;28;20519;-70
2023/08/31 10:59:21;;;;;;;0.85;0.60;;;22.00;63.50;;;;;;6197857;28;20026;-70
2023/08/31 11:02:34;;;;;;;1.13;0.70;;;22.00;63.50;;;;;;6206494;28;20468;-70
2023/08/31 11:05:35;;;;;;;0.47;0.45;;;22.00;63.50;;;;;;6199777;28;20026;-71
2023/08/31 11:08:36;;;;;;;2.45;0.60;;;22.00;63.50;;;;;;6213092;28;20039;-70
2023/08/31 11:11:40;;;;;;;1.15;0.77;;;22.00;63.50;;;;;;6198450;28;20061;-71
2023/08/31 11:14:41;;;;;;;0.60;0.50;;;22.00;63.60;;;;;;6198274;28;20033;-71
2023/08/31 11:17:43;;;;;;;1.05;0.70;;;22.00;63.60;;;;;;6198221;28;20076;-71
2023/08/31 11:20:44;;;;;;;1.10;0.80;;;22.00;63.60;;;;;;6212735;28;20034;-70
2023/08/31 11:23:47;;;;;;;0.80;0.55;;;22.00;63.60;;;;;;6205628;28;20085;-71
2023/08/31 11:26:51;;;;;;;1.85;0.80;;;22.00;63.60;;;;;;6212092;28;20104;-70
2023/08/31 11:29:52;;;;;;;1.03;0.67;;;22.00;63.60;;;;;;6197431;28;20397;-70
2023/08/31 11:32:53;;;;;;;0.82;0.60;;;22.00;63.60;;;;;;6197957;28;20034;-71
2023/08/31 11:35:54;;;;;;;0.50;0.50;;;22.00;63.60;;;;;;6216526;28;20186;-70
2023/08/31 11:38:54;;;;;;;1.35;0.65;;;22.00;63.60;;;;;;6209645;28;20026;-70
2023/08/31 11:41:55;;;;;;;1.08;0.73;;;22.00;63.60;;;;;;6205053;28;20033;-70
2023/08/31 11:44:56;;;;;;;0.88;0.55;;;22.00;63.70;;;;;;6197310;28;20038;-70
2023/08/31 11:47:57;;;;;;;1.63;0.70;;;22.00;63.70;;;;;;6197138;28;20038;-71
2023/08/31 11:50:59;;;;;;;0.60;0.57;;;22.00;63.70;;;;;;6196902;28;20461;-71
2023/08/31 11:54:04;;;;;;;1.35;0.70;;;21.90;63.50;;;;;;6195997;28;20556;-71
2023/08/31 11:57:09;;;;;;;1.40;0.73;;;21.90;63.60;;;;;;6198303;28;20030;-70
2023/08/31 12:00:11;;;;;;;1.60;1.00;;;21.90;63.50;;;;;;6197360;28;20046;-71
2023/08/31 12:03:12;;;;;;;1.33;1.08;;;21.90;63.50;;;;;;6211619;28;20091;-70
2023/08/31 12:06:17;;;;;;;2.20;1.10;;;21.90;63.50;;;;;;6198311;28;20026;-71
2023/08/31 12:09:18;;;;;;;;;;;21.90;63.20;;;;;;6197309;28;20026;-70
2023/08/31 12:12:21;;;;;;;2.35;1.25;;;21.90;63.30;;;;;;6196541;28;20380;-70
2023/08/31 12:15:22;;;;;;;3.38;2.05;;;21.90;63.10;;;;;;6196466;28;20417;-70
2023/08/31 12:18:23;;;;;;;3.30;1.90;;;21.90;63.10;;;;;;6200733;28;20035;-71
2023/08/31 12:21:24;;;;;;;2.90;1.63;;;21.90;63.10;;;;;;6204415;28;20034;-70
2023/08/31 12:24:25;;;;;;;2.42;1.60;;;21.90;62.90;;;;;;6220926;28;20504;-70
2023/08/31 12:27:26;;;;;;;4.40;1.70;;;21.90;62.90;;;;;;6189147;28;20030;-70
2023/08/31 12:30:26;;;;;;;3.25;1.77;;;21.90;62.50;;;;;;6202654;28;20508;-70
2023/08/31 12:33:27;;;;;;;2.97;1.48;;;21.90;62.70;;;;;;6193554;28;20106;-70
2023/08/31 12:36:27;;;;;;;2.88;1.60;;;21.90;62.00;;;;;;6189988;28;20034;-70
2023/08/31 12:39:28;;;;;;;3.10;1.48;;;21.90;60.80;;;;;;6196350;28;20030;-70
2023/08/31 12:42:29;;;;;;;2.50;1.42;;;21.90;61.90;;;;;;6213241;28;20440;-71
2023/08/31 12:45:29;;;;;;;3.90;1.63;;;21.90;61.80;;;;;;6193377;28;20057;-70
2023/08/31 12:48:30;;;;;;;2.95;1.58;;;21.90;61.70;;;;;;6194797;28;20034;-70
2023/08/31 12:51:31;;;;;;;2.25;1.20;;;21.90;61.90;;;;;;6194563;28;20038;-70
2023/08/31 12:54:31;;;;;;;3.13;1.40;;;21.90;61.50;;;;;;6183113;28;20533;-70
2023/08/31 12:57:32;;;;;;;2.25;1.25;;;21.90;59.90;;;;;;6193760;28;20034;-70
2023/08/31 13:00:33;;;;;;;2.42;1.50;;;22.00;59.70;;;;;;6194718;28;20027;-70
2023/08/31 13:03:34;;;;;;;2.95;1.05;;;22.00;60.60;;;;;;6194599;28;20159;-70
2023/08/31 13:06:34;;;;;;;3.00;1.10;;;22.00;60.00;;;;;;6202194;28;20520;-70
2023/08/31 13:09:35;;;;;;;2.92;1.10;;;22.00;61.10;;;;;;6193575;28;20062;-71
2023/08/31 13:12:37;;;;;;;2.75;1.50;;;22.00;61.40;;;;;;6202013;28;20022;-70
2023/08/31 13:15:37;;;;;;;2.85;1.20;;;22.00;61.70;;;;;;6194798;28;20034;-71
2023/08/31 13:18:38;;;;;;;1.80;1.15;;;22.00;61.90;;;;;;6191391;28;20030;-70
2023/08/31 13:21:38;;;;;;;1.45;1.00;;;21.90;61.90;;;;;;6190847;28;20432;-70
2023/08/31 13:24:39;;;;;;;1.90;1.33;;;22.00;62.20;;;;;;6194368;28;20026;-70
2023/08/31 13:27:39;;;;;;;2.70;1.45;;;21.90;62.00;;;;;;6200165;28;20032;-70
2023/08/31 13:30:42;;;;;;;2.50;1.30;;;21.90;62.10;;;;;;6208707;28;20046;-70
2023/08/31 13:33:42;;;;;;;1.85;1.15;;;21.90;62.10;;;;;;6194203;28;20034;-70
2023/08/31 13:36:43;;;;;;;4.22;1.30;;;22.00;62.20;;;;;;6193688;28;20114;-70
2023/08/31 13:39:44;;;;;;;2.55;1.20;;;21.90;62.20;;;;;;6196937;28;20100;-71
2023/08/31 13:43:02;;;;;;;2.10;1.10;;;21.90;62.20;;;;;;6198407;28;20444;-70
2023/08/31 13:46:04;;;;;;;3.00;1.00;;;22.00;62.30;;;;;;6201583;28;20389;-70
2023/08/31 13:49:04;;;;;;;2.00;1.27;;;21.90;62.30;;;;;;6192794;28;20034;-70
2023/08/31 13:52:05;;;;;;;2.05;1.10;;;21.90;62.30;;;;;;6193798;28;20080;-70
2023/08/31 13:55:06;;;;;;;3.15;1.15;;;21.90;62.40;;;;;;6198886;28;20029;-70
2023/08/31 13:58:07;;;;;;;2.70;1.15;;;21.90;62.30;;;;;;6204043;28;20025;-70
2023/08/31 14:01:08;;;;;;;1.60;1.10;;;21.90;62.10;;;;;;6192638;28;20030;-71
2023/08/31 14:04:09;;;;;;;1.77;1.10;;;22.00;61.60;;;;;;6199899;28;20026;-71
2023/08/31 14:07:09;;;;;;;2.20;1.00;;;22.00;62.30;;;;;;6193388;28;20038;-70
2023/08/31 14:10:10;;;;;;;2.03;1.02;;;22.00;62.00;;;;;;6192921;28;20061;-71
2023/08/31 14:13:11;;;;;;;2.63;1.20;;;22.00;61.90;;;;;;6201341;28;20181;-71
2023/08/31 14:16:11;;;;;;;3.72;1.20;;;22.00;62.30;;;;;;6192829;28;20035;-71
2023/08/31 14:19:12;;;;;;;7.68;1.30;;;22.00;62.60;;;;;;6205389;28;20105;-70
2023/08/31 14:22:13;;;;;;;6.95;1.17;;;22.00;62.40;;;;;;6192654;28;20026;-70
2023/08/31 14:25:14;;;;;;;4.47;1.40;;;22.10;62.70;;;;;;6201351;28;20042;-70
2023/08/31 14:28:15;;;;;;;6.07;1.20;;;22.10;62.80;;;;;;6199390;28;20119;-68
2023/08/31 14:31:16;;;;;;;20.15;1.90;;;22.10;63.10;;;;;;6193087;28;20038;-69
2023/08/31 14:34:16;;;;;;;10.75;1.35;;;22.10;63.30;;;;;;6193441;28;20022;-68
2023/08/31 14:37:17;;;;;;;3.15;1.20;;;22.10;61.70;;;;;;6193201;28;20032;-69
2023/08/31 14:40:17;;;;;;;5.28;1.27;;;22.10;60.20;;;;;;6200805;28;20014;-69
2023/08/31 14:43:18;;;;;;;7.22;1.42;;;22.10;60.00;;;;;;6201120;28;20354;-69
2023/08/31 14:46:18;;;;;;;6.82;1.25;;;22.10;59.90;;;;;;6201075;28;20027;-69
2023/08/31 14:49:24;;;;;;;9.13;1.60;;;22.00;59.70;;;;;;6205274;28;20080;-68
2023/08/31 14:52:24;;;;;;;18.83;1.92;;;22.10;57.50;;;;;;6187277;28;20773;-68
2023/08/31 14:55:25;;;;;;;6.78;1.50;;;22.10;58.30;;;;;;6200351;28;20034;-69
2023/08/31 14:58:26;;;;;;;10.98;2.03;;;22.10;58.40;;;;;;6197496;28;20478;-68
2023/08/31 15:01:28;;;;;;;4.22;1.30;;;22.10;58.40;;;;;;6192515;28;20061;-69
2023/08/31 15:04:29;;;;;;;6.63;1.27;;;22.10;58.40;;;;;;6200742;28;20044;-69
2023/08/31 15:07:29;;;;;;;9.70;1.70;;;22.10;59.00;;;;;;6192834;28;20493;-69
2023/08/31 15:10:30;;;;;;;9.10;1.50;;;22.10;59.00;;;;;;6191748;28;20062;-69
2023/08/31 15:13:31;;;;;;;5.05;1.50;;;22.10;59.30;;;;;;6192312;28;20031;-69
2023/08/31 15:16:33;;;;;;;5.63;1.70;;;22.10;59.70;;;;;;6199840;28;20042;-68
2023/08/31 15:19:34;;;;;;;3.60;1.05;;;22.10;59.90;;;;;;6192770;28;20121;-69
2023/08/31 15:22:34;;;;;;;7.18;1.17;;;22.10;59.50;;;;;;6190503;28;20034;-69
2023/08/31 15:25:35;;;;;;;6.03;1.10;;;22.10;60.00;;;;;;6200295;28;20029;-69
2023/08/31 15:28:36;;;;;;;5.88;1.60;;;22.10;60.10;;;;;;6193241;28;20100;-69
2023/08/31 15:31:36;;;;;;;4.05;1.60;;;22.10;60.80;;;;;;6214688;28;20030;-69
2023/08/31 15:34:37;;;;;;;4.22;1.50;;;22.10;60.20;;;;;;6202786;28;20397;-69
2023/08/31 15:37:38;;;;;;;3.50;1.20;;;22.10;60.70;;;;;;6196823;28;20035;-69
2023/08/31 15:40:38;;;;;;;3.40;1.30;;;22.10;60.30;;;;;;6204832;28;20021;-69
2023/08/31 15:43:39;;;;;;;5.65;1.80;;;22.10;60.60;;;;;;6198819;28;20030;-69
2023/08/31 15:46:39;;;;;;;1.67;1.20;;;22.10;60.00;;;;;;6210505;28;20397;-69